sensor_id;sensor_type;location;lat;lon;timestamp;pressure;altitude;pressure_sealevel;temperature
68510;BMP180;55512;50.102;19.958;2022-11-12T00:00:51;100197.60;;;7.90
68510;BMP180;55512;50.102;19.958;2022-11-12T00:03:17;100200.60;;;7.90
68510;BMP180;55512;50.102;19.958;2022-11-12T00:05:44;100207.60;;;7.90
68510;BMP180;55512;50.102;19.958;2022-11-12T00:08:10;100208.60;;;7.90
68510;BMP180;55512;50.102;19.958;2022-11-12T00:10:35;100201.40;;;7.90
68510;BMP180;55512;50.102;19.958;2022-11-12T00:13:01;100193.60;;;7.88
68510;BMP180;55512;50.102;19.958;2022-11-12T00:15:26;100189.00;;;7.82
68510;BMP180;55512;50.102;19.958;2022-11-12T00:17:52;100194.00;;;7.86
68510;BMP180;55512;50.102;19.958;2022-11-12T00:20:18;100191.40;;;7.84
68510;BMP180;55512;50.102;19.958;2022-11-12T00:22:43;100193.60;;;7.80
68510;BMP180;55512;50.102;19.958;2022-11-12T00:25:09;100194.80;;;7.80
68510;BMP180;55512;50.102;19.958;2022-11-12T00:27:35;100190.60;;;7.80
68510;BMP180;55512;50.102;19.958;2022-11-12T00:30:02;100186.80;;;7.80
68510;BMP180;55512;50.102;19.958;2022-11-12T00:32:27;100186.20;;;7.80
68510;BMP180;55512;50.102;19.958;2022-11-12T00:34:53;100180.60;;;7.72
68510;BMP180;55512;50.102;19.958;2022-11-12T00:37:18;100185.40;;;7.70
68510;BMP180;55512;50.102;19.958;2022-11-12T00:39:45;100185.40;;;7.70
68510;BMP180;55512;50.102;19.958;2022-11-12T00:42:10;100185.20;;;7.68
68510;BMP180;55512;50.102;19.958;2022-11-12T00:44:36;100187.40;;;7.62
68510;BMP180;55512;50.102;19.958;2022-11-12T00:47:01;100186.40;;;7.60
68510;BMP180;55512;50.102;19.958;2022-11-12T00:49:27;100185.80;;;7.60
68510;BMP180;55512;50.102;19.958;2022-11-12T00:51:52;100186.80;;;7.50
68510;BMP180;55512;50.102;19.958;2022-11-12T00:54:18;100186.80;;;7.50
68510;BMP180;55512;50.102;19.958;2022-11-12T00:56:46;100186.00;;;7.50
68510;BMP180;55512;50.102;19.958;2022-11-12T00:59:12;100190.60;;;7.50
68510;BMP180;55512;50.102;19.958;2022-11-12T01:01:38;100188.00;;;7.50
68510;BMP180;55512;50.102;19.958;2022-11-12T01:04:05;100192.40;;;7.50
68510;BMP180;55512;50.102;19.958;2022-11-12T01:06:31;100191.40;;;7.50
68510;BMP180;55512;50.102;19.958;2022-11-12T01:08:56;100197.20;;;7.46
68510;BMP180;55512;50.102;19.958;2022-11-12T01:11:26;100195.60;;;7.40
68510;BMP180;55512;50.102;19.958;2022-11-12T01:13:59;100196.60;;;7.40
68510;BMP180;55512;50.102;19.958;2022-11-12T01:16:29;100195.40;;;7.40
68510;BMP180;55512;50.102;19.958;2022-11-12T01:18:58;100196.20;;;7.36
68510;BMP180;55512;50.102;19.958;2022-11-12T01:21:31;100192.80;;;7.32
68510;BMP180;55512;50.102;19.958;2022-11-12T01:23:59;100189.00;;;7.30
68510;BMP180;55512;50.102;19.958;2022-11-12T01:26:25;100193.80;;;7.30
68510;BMP180;55512;50.102;19.958;2022-11-12T01:28:55;100191.00;;;7.30
68510;BMP180;55512;50.102;19.958;2022-11-12T01:33:58;100193.60;;;7.20
68510;BMP180;55512;50.102;19.958;2022-11-12T01:36:25;100194.60;;;7.20
68510;BMP180;55512;50.102;19.958;2022-11-12T01:38:52;100195.60;;;7.20
68510;BMP180;55512;50.102;19.958;2022-11-12T01:41:28;100196.40;;;7.20
68510;BMP180;55512;50.102;19.958;2022-11-12T01:44:20;100191.80;;;7.20
68510;BMP180;55512;50.102;19.958;2022-11-12T01:49:55;100194.20;;;7.10
68510;BMP180;55512;50.102;19.958;2022-11-12T01:53:04;100192.60;;;7.10
68510;BMP180;55512;50.102;19.958;2022-11-12T01:55:36;100193.20;;;7.10
68510;BMP180;55512;50.102;19.958;2022-11-12T01:58:11;100193.00;;;7.10
68510;BMP180;55512;50.102;19.958;2022-11-12T02:00:38;100193.80;;;7.10
68510;BMP180;55512;50.102;19.958;2022-11-12T02:03:12;100190.20;;;7.10
68510;BMP180;55512;50.102;19.958;2022-11-12T02:05:40;100192.00;;;7.10
68510;BMP180;55512;50.102;19.958;2022-11-12T02:08:08;100190.00;;;7.10
68510;BMP180;55512;50.102;19.958;2022-11-12T02:10:39;100194.40;;;7.10
68510;BMP180;55512;50.102;19.958;2022-11-12T02:13:05;100196.20;;;7.10
68510;BMP180;55512;50.102;19.958;2022-11-12T02:15:50;100198.40;;;7.10
68510;BMP180;55512;50.102;19.958;2022-11-12T02:18:16;100194.00;;;7.04
68510;BMP180;55512;50.102;19.958;2022-11-12T02:20:41;100191.20;;;7.00
68510;BMP180;55512;50.102;19.958;2022-11-12T02:23:07;100192.00;;;7.00
68510;BMP180;55512;50.102;19.958;2022-11-12T02:25:34;100191.00;;;7.00
68510;BMP180;55512;50.102;19.958;2022-11-12T02:28:04;100189.60;;;7.00
68510;BMP180;55512;50.102;19.958;2022-11-12T02:30:44;100192.40;;;7.00
68510;BMP180;55512;50.102;19.958;2022-11-12T02:33:09;100195.00;;;7.00
68510;BMP180;55512;50.102;19.958;2022-11-12T02:35:35;100194.00;;;6.98
68510;BMP180;55512;50.102;19.958;2022-11-12T02:38:02;100191.60;;;6.96
68510;BMP180;55512;50.102;19.958;2022-11-12T02:40:27;100188.40;;;6.90
68510;BMP180;55512;50.102;19.958;2022-11-12T02:42:53;100184.40;;;6.90
68510;BMP180;55512;50.102;19.958;2022-11-12T02:45:18;100184.40;;;6.90
68510;BMP180;55512;50.102;19.958;2022-11-12T02:47:44;100185.00;;;6.80
68510;BMP180;55512;50.102;19.958;2022-11-12T02:50:13;100183.60;;;6.80
68510;BMP180;55512;50.102;19.958;2022-11-12T02:52:38;100184.80;;;6.80
68510;BMP180;55512;50.102;19.958;2022-11-12T02:55:09;100180.80;;;6.80
68510;BMP180;55512;50.102;19.958;2022-11-12T02:57:36;100184.80;;;6.72
68510;BMP180;55512;50.102;19.958;2022-11-12T03:00:10;100178.00;;;6.70
68510;BMP180;55512;50.102;19.958;2022-11-12T03:02:36;100185.20;;;6.70
68510;BMP180;55512;50.102;19.958;2022-11-12T03:05:11;100183.20;;;6.70
68510;BMP180;55512;50.102;19.958;2022-11-12T03:07:37;100180.60;;;6.70
68510;BMP180;55512;50.102;19.958;2022-11-12T03:10:05;100181.60;;;6.62
68510;BMP180;55512;50.102;19.958;2022-11-12T03:12:31;100183.40;;;6.60
68510;BMP180;55512;50.102;19.958;2022-11-12T03:14:57;100184.40;;;6.60
68510;BMP180;55512;50.102;19.958;2022-11-12T03:17:23;100181.40;;;6.60
68510;BMP180;55512;50.102;19.958;2022-11-12T03:19:48;100182.20;;;6.60
68510;BMP180;55512;50.102;19.958;2022-11-12T03:22:14;100183.40;;;6.50
68510;BMP180;55512;50.102;19.958;2022-11-12T03:24:39;100182.00;;;6.50
68510;BMP180;55512;50.102;19.958;2022-11-12T03:27:05;100185.40;;;6.50
68510;BMP180;55512;50.102;19.958;2022-11-12T03:29:30;100180.20;;;6.50
68510;BMP180;55512;50.102;19.958;2022-11-12T03:31:56;100183.00;;;6.50
68510;BMP180;55512;50.102;19.958;2022-11-12T03:34:21;100182.60;;;6.50
68510;BMP180;55512;50.102;19.958;2022-11-12T03:36:47;100180.00;;;6.50
68510;BMP180;55512;50.102;19.958;2022-11-12T03:39:12;100184.00;;;6.50
68510;BMP180;55512;50.102;19.958;2022-11-12T03:41:38;100180.60;;;6.50
68510;BMP180;55512;50.102;19.958;2022-11-12T03:44:03;100186.20;;;6.50
68510;BMP180;55512;50.102;19.958;2022-11-12T03:46:28;100184.40;;;6.50
68510;BMP180;55512;50.102;19.958;2022-11-12T03:48:54;100179.40;;;6.50
68510;BMP180;55512;50.102;19.958;2022-11-12T03:51:19;100180.00;;;6.50
68510;BMP180;55512;50.102;19.958;2022-11-12T03:53:45;100176.40;;;6.50
68510;BMP180;55512;50.102;19.958;2022-11-12T03:56:11;100177.60;;;6.50
68510;BMP180;55512;50.102;19.958;2022-11-12T03:58:37;100177.20;;;6.40
68510;BMP180;55512;50.102;19.958;2022-11-12T04:01:02;100177.60;;;6.40
68510;BMP180;55512;50.102;19.958;2022-11-12T04:03:28;100173.20;;;6.40
68510;BMP180;55512;50.102;19.958;2022-11-12T04:05:53;100172.40;;;6.34
68510;BMP180;55512;50.102;19.958;2022-11-12T04:08:37;100180.60;;;6.30
68510;BMP180;55512;50.102;19.958;2022-11-12T04:11:10;100182.40;;;6.30
68510;BMP180;55512;50.102;19.958;2022-11-12T04:13:41;100180.60;;;6.30
68510;BMP180;55512;50.102;19.958;2022-11-12T04:16:11;100181.20;;;6.30
68510;BMP180;55512;50.102;19.958;2022-11-12T04:18:57;100184.40;;;6.20
68510;BMP180;55512;50.102;19.958;2022-11-12T04:27:15;100172.00;;;6.20
68510;BMP180;55512;50.102;19.958;2022-11-12T04:29:42;100170.20;;;6.20
68510;BMP180;55512;50.102;19.958;2022-11-12T04:32:28;100177.60;;;6.20
68510;BMP180;55512;50.102;19.958;2022-11-12T04:34:54;100176.80;;;6.20
68510;BMP180;55512;50.102;19.958;2022-11-12T04:37:23;100171.00;;;6.20
68510;BMP180;55512;50.102;19.958;2022-11-12T04:39:50;100177.40;;;6.20
68510;BMP180;55512;50.102;19.958;2022-11-12T04:42:16;100169.60;;;6.10
68510;BMP180;55512;50.102;19.958;2022-11-12T04:45:01;100170.00;;;6.10
68510;BMP180;55512;50.102;19.958;2022-11-12T04:47:39;100174.40;;;6.10
68510;BMP180;55512;50.102;19.958;2022-11-12T04:50:13;100168.80;;;6.10
68510;BMP180;55512;50.102;19.958;2022-11-12T04:52:39;100171.80;;;6.10
68510;BMP180;55512;50.102;19.958;2022-11-12T04:55:05;100168.40;;;6.06
68510;BMP180;55512;50.102;19.958;2022-11-12T04:57:31;100179.60;;;6.00
68510;BMP180;55512;50.102;19.958;2022-11-12T04:59:56;100177.20;;;6.00
68510;BMP180;55512;50.102;19.958;2022-11-12T05:02:22;100173.20;;;5.94
68510;BMP180;55512;50.102;19.958;2022-11-12T05:04:48;100173.80;;;5.90
68510;BMP180;55512;50.102;19.958;2022-11-12T05:07:14;100170.80;;;5.90
68510;BMP180;55512;50.102;19.958;2022-11-12T05:09:40;100175.40;;;5.90
68510;BMP180;55512;50.102;19.958;2022-11-12T05:12:06;100175.80;;;5.80
68510;BMP180;55512;50.102;19.958;2022-11-12T05:14:32;100173.40;;;5.80
68510;BMP180;55512;50.102;19.958;2022-11-12T05:16:58;100172.80;;;5.80
68510;BMP180;55512;50.102;19.958;2022-11-12T05:19:23;100172.40;;;5.80
68510;BMP180;55512;50.102;19.958;2022-11-12T05:21:49;100171.40;;;5.80
68510;BMP180;55512;50.102;19.958;2022-11-12T05:24:38;100169.80;;;5.76
68510;BMP180;55512;50.102;19.958;2022-11-12T05:27:12;100169.60;;;5.70
68510;BMP180;55512;50.102;19.958;2022-11-12T05:29:38;100170.80;;;5.70
68510;BMP180;55512;50.102;19.958;2022-11-12T05:32:05;100162.60;;;5.70
68510;BMP180;55512;50.102;19.958;2022-11-12T05:34:32;100170.80;;;5.62
68510;BMP180;55512;50.102;19.958;2022-11-12T05:36:58;100173.60;;;5.60
68510;BMP180;55512;50.102;19.958;2022-11-12T05:39:23;100170.60;;;5.60
68510;BMP180;55512;50.102;19.958;2022-11-12T05:41:49;100171.40;;;5.60
68510;BMP180;55512;50.102;19.958;2022-11-12T05:44:15;100170.60;;;5.50
68510;BMP180;55512;50.102;19.958;2022-11-12T05:46:40;100176.80;;;5.50
68510;BMP180;55512;50.102;19.958;2022-11-12T05:49:06;100177.60;;;5.50
68510;BMP180;55512;50.102;19.958;2022-11-12T05:51:31;100181.00;;;5.40
68510;BMP180;55512;50.102;19.958;2022-11-12T05:53:57;100178.60;;;5.40
68510;BMP180;55512;50.102;19.958;2022-11-12T05:56:23;100178.00;;;5.40
68510;BMP180;55512;50.102;19.958;2022-11-12T05:58:48;100188.80;;;5.40
68510;BMP180;55512;50.102;19.958;2022-11-12T06:01:14;100193.20;;;5.40
68510;BMP180;55512;50.102;19.958;2022-11-12T06:03:39;100189.00;;;5.40
68510;BMP180;55512;50.102;19.958;2022-11-12T06:06:05;100188.40;;;5.40
68510;BMP180;55512;50.102;19.958;2022-11-12T06:08:30;100191.60;;;5.40
68510;BMP180;55512;50.102;19.958;2022-11-12T06:10:56;100193.60;;;5.40
68510;BMP180;55512;50.102;19.958;2022-11-12T06:13:24;100190.80;;;5.40
68510;BMP180;55512;50.102;19.958;2022-11-12T06:15:51;100189.80;;;5.40
68510;BMP180;55512;50.102;19.958;2022-11-12T06:18:17;100192.60;;;5.40
68510;BMP180;55512;50.102;19.958;2022-11-12T06:20:42;100196.00;;;5.40
68510;BMP180;55512;50.102;19.958;2022-11-12T06:23:08;100198.00;;;5.40
68510;BMP180;55512;50.102;19.958;2022-11-12T06:25:33;100200.40;;;5.40
68510;BMP180;55512;50.102;19.958;2022-11-12T06:27:59;100198.40;;;5.40
68510;BMP180;55512;50.102;19.958;2022-11-12T06:30:24;100202.00;;;5.40
68510;BMP180;55512;50.102;19.958;2022-11-12T06:32:50;100210.00;;;5.50
68510;BMP180;55512;50.102;19.958;2022-11-12T06:35:18;100215.20;;;5.50
68510;BMP180;55512;50.102;19.958;2022-11-12T06:37:48;100221.60;;;5.50
68510;BMP180;55512;50.102;19.958;2022-11-12T06:40:13;100219.40;;;5.60
68510;BMP180;55512;50.102;19.958;2022-11-12T06:42:40;100221.20;;;5.60
68510;BMP180;55512;50.102;19.958;2022-11-12T06:45:06;100216.40;;;5.68
68510;BMP180;55512;50.102;19.958;2022-11-12T06:47:31;100215.80;;;5.70
68510;BMP180;55512;50.102;19.958;2022-11-12T06:49:57;100222.00;;;5.80
68510;BMP180;55512;50.102;19.958;2022-11-12T06:52:23;100224.80;;;5.80
68510;BMP180;55512;50.102;19.958;2022-11-12T06:54:48;100230.40;;;5.80
68510;BMP180;55512;50.102;19.958;2022-11-12T06:57:14;100221.40;;;5.80
68510;BMP180;55512;50.102;19.958;2022-11-12T06:59:39;100227.40;;;5.90
68510;BMP180;55512;50.102;19.958;2022-11-12T07:02:05;100223.40;;;5.90
68510;BMP180;55512;50.102;19.958;2022-11-12T07:04:31;100222.20;;;5.90
68510;BMP180;55512;50.102;19.958;2022-11-12T07:06:56;100222.20;;;5.90
68510;BMP180;55512;50.102;19.958;2022-11-12T07:09:21;100225.00;;;5.90
68510;BMP180;55512;50.102;19.958;2022-11-12T07:11:47;100230.20;;;5.90
68510;BMP180;55512;50.102;19.958;2022-11-12T07:14:12;100230.80;;;6.00
68510;BMP180;55512;50.102;19.958;2022-11-12T07:16:38;100233.80;;;6.00
68510;BMP180;55512;50.102;19.958;2022-11-12T07:19:04;100233.00;;;6.06
68510;BMP180;55512;50.102;19.958;2022-11-12T07:21:29;100236.00;;;6.10
68510;BMP180;55512;50.102;19.958;2022-11-12T07:23:55;100237.40;;;6.10
68510;BMP180;55512;50.102;19.958;2022-11-12T07:26:26;100239.80;;;6.10
68510;BMP180;55512;50.102;19.958;2022-11-12T07:28:54;100242.80;;;6.20
68510;BMP180;55512;50.102;19.958;2022-11-12T07:31:21;100244.80;;;6.22
68510;BMP180;55512;50.102;19.958;2022-11-12T07:33:47;100243.80;;;6.20
68510;BMP180;55512;50.102;19.958;2022-11-12T07:36:17;100248.20;;;6.28
68510;BMP180;55512;50.102;19.958;2022-11-12T07:38:43;100245.40;;;6.30
68510;BMP180;55512;50.102;19.958;2022-11-12T07:41:16;100237.60;;;6.30
68510;BMP180;55512;50.102;19.958;2022-11-12T07:43:45;100236.00;;;6.40
68510;BMP180;55512;50.102;19.958;2022-11-12T07:46:15;100234.20;;;6.40
68510;BMP180;55512;50.102;19.958;2022-11-12T07:48:42;100243.40;;;6.50
68510;BMP180;55512;50.102;19.958;2022-11-12T07:51:15;100239.20;;;6.50
68510;BMP180;55512;50.102;19.958;2022-11-12T07:53:43;100236.40;;;6.60
68510;BMP180;55512;50.102;19.958;2022-11-12T07:56:12;100230.40;;;6.60
68510;BMP180;55512;50.102;19.958;2022-11-12T07:58:38;100226.80;;;6.70
68510;BMP180;55512;50.102;19.958;2022-11-12T08:01:08;100233.80;;;6.70
68510;BMP180;55512;50.102;19.958;2022-11-12T08:03:34;100234.00;;;6.76
68510;BMP180;55512;50.102;19.958;2022-11-12T08:06:00;100231.60;;;6.80
68510;BMP180;55512;50.102;19.958;2022-11-12T08:08:26;100234.20;;;6.82
68510;BMP180;55512;50.102;19.958;2022-11-12T08:10:56;100231.40;;;6.90
68510;BMP180;55512;50.102;19.958;2022-11-12T08:13:23;100229.00;;;6.90
68510;BMP180;55512;50.102;19.958;2022-11-12T08:15:48;100232.80;;;7.00
68510;BMP180;55512;50.102;19.958;2022-11-12T08:18:14;100236.40;;;7.00
68510;BMP180;55512;50.102;19.958;2022-11-12T08:20:40;100241.60;;;7.00
68510;BMP180;55512;50.102;19.958;2022-11-12T08:23:05;100243.40;;;7.10
68510;BMP180;55512;50.102;19.958;2022-11-12T08:25:31;100242.00;;;7.10
68510;BMP180;55512;50.102;19.958;2022-11-12T08:27:58;100243.00;;;7.14
68510;BMP180;55512;50.102;19.958;2022-11-12T08:30:28;100245.40;;;7.20
68510;BMP180;55512;50.102;19.958;2022-11-12T08:32:56;100246.60;;;7.30
68510;BMP180;55512;50.102;19.958;2022-11-12T08:35:23;100247.40;;;7.30
68510;BMP180;55512;50.102;19.958;2022-11-12T08:37:49;100252.80;;;7.40
68510;BMP180;55512;50.102;19.958;2022-11-12T08:40:14;100253.00;;;7.48
68510;BMP180;55512;50.102;19.958;2022-11-12T08:42:39;100252.00;;;7.50
68510;BMP180;55512;50.102;19.958;2022-11-12T08:45:06;100259.80;;;7.60
68510;BMP180;55512;50.102;19.958;2022-11-12T08:47:31;100254.80;;;7.70
68510;BMP180;55512;50.102;19.958;2022-11-12T08:49:57;100255.80;;;7.80
68510;BMP180;55512;50.102;19.958;2022-11-12T08:52:22;100261.60;;;7.90
68510;BMP180;55512;50.102;19.958;2022-11-12T08:54:47;100256.80;;;8.08
68510;BMP180;55512;50.102;19.958;2022-11-12T08:57:13;100257.60;;;8.16
68510;BMP180;55512;50.102;19.958;2022-11-12T08:59:38;100263.80;;;8.30
68510;BMP180;55512;50.102;19.958;2022-11-12T09:02:04;100267.40;;;8.40
68510;BMP180;55512;50.102;19.958;2022-11-12T09:04:30;100268.00;;;8.50
68510;BMP180;55512;50.102;19.958;2022-11-12T09:06:56;100271.60;;;8.60
68510;BMP180;55512;50.102;19.958;2022-11-12T09:09:21;100273.20;;;8.70
68510;BMP180;55512;50.102;19.958;2022-11-12T09:11:47;100273.40;;;8.80
68510;BMP180;55512;50.102;19.958;2022-11-12T09:14:12;100267.40;;;8.90
68510;BMP180;55512;50.102;19.958;2022-11-12T09:16:38;100266.80;;;9.00
68510;BMP180;55512;50.102;19.958;2022-11-12T09:19:03;100272.00;;;9.10
68510;BMP180;55512;50.102;19.958;2022-11-12T09:21:28;100268.60;;;9.20
68510;BMP180;55512;50.102;19.958;2022-11-12T09:23:54;100269.00;;;9.28
68510;BMP180;55512;50.102;19.958;2022-11-12T09:26:20;100273.00;;;9.34
68510;BMP180;55512;50.102;19.958;2022-11-12T09:28:45;100272.40;;;9.44
68510;BMP180;55512;50.102;19.958;2022-11-12T09:31:11;100270.40;;;9.58
68510;BMP180;55512;50.102;19.958;2022-11-12T09:33:36;100268.80;;;9.60
68510;BMP180;55512;50.102;19.958;2022-11-12T09:36:02;100269.20;;;9.70
68510;BMP180;55512;50.102;19.958;2022-11-12T09:38:29;100265.60;;;9.80
68510;BMP180;55512;50.102;19.958;2022-11-12T09:41:24;100268.80;;;9.80
68510;BMP180;55512;50.102;19.958;2022-11-12T09:43:55;100268.60;;;9.90
68510;BMP180;55512;50.102;19.958;2022-11-12T09:49:10;100263.00;;;9.96
68510;BMP180;55512;50.102;19.958;2022-11-12T09:51:47;100266.20;;;10.00
68510;BMP180;55512;50.102;19.958;2022-11-12T09:54:26;100264.80;;;10.02
68510;BMP180;55512;50.102;19.958;2022-11-12T09:56:53;100266.40;;;10.10
68510;BMP180;55512;50.102;19.958;2022-11-12T09:59:20;100268.60;;;10.18
68510;BMP180;55512;50.102;19.958;2022-11-12T10:05:09;100266.80;;;10.30
68510;BMP180;55512;50.102;19.958;2022-11-12T10:10:40;100259.80;;;10.40
68510;BMP180;55512;50.102;19.958;2022-11-12T10:19:09;100263.00;;;10.60
68510;BMP180;55512;50.102;19.958;2022-11-12T10:22:25;100261.40;;;10.70
68510;BMP180;55512;50.102;19.958;2022-11-12T10:24:53;100260.00;;;10.80
68510;BMP180;55512;50.102;19.958;2022-11-12T10:27:35;100262.40;;;10.88
68510;BMP180;55512;50.102;19.958;2022-11-12T10:30:08;100261.60;;;10.90
68510;BMP180;55512;50.102;19.958;2022-11-12T10:32:43;100258.20;;;11.00
68510;BMP180;55512;50.102;19.958;2022-11-12T10:35:15;100256.20;;;11.10
68510;BMP180;55512;50.102;19.958;2022-11-12T10:37:52;100259.60;;;11.20
68510;BMP180;55512;50.102;19.958;2022-11-12T10:43:21;100258.60;;;11.40
68510;BMP180;55512;50.102;19.958;2022-11-12T10:45:48;100254.20;;;11.40
68510;BMP180;55512;50.102;19.958;2022-11-12T10:48:31;100252.40;;;11.50
68510;BMP180;55512;50.102;19.958;2022-11-12T10:50:58;100249.80;;;11.60
68510;BMP180;55512;50.102;19.958;2022-11-12T10:53:42;100244.40;;;11.60
68510;BMP180;55512;50.102;19.958;2022-11-12T10:56:27;100242.60;;;11.70
68510;BMP180;55512;50.102;19.958;2022-11-12T10:59:23;100242.80;;;11.80
68510;BMP180;55512;50.102;19.958;2022-11-12T11:01:59;100246.40;;;11.80
68510;BMP180;55512;50.102;19.958;2022-11-12T11:04:36;100234.40;;;11.90
68510;BMP180;55512;50.102;19.958;2022-11-12T11:07:24;100237.40;;;11.96
68510;BMP180;55512;50.102;19.958;2022-11-12T11:09:59;100240.00;;;12.00
68510;BMP180;55512;50.102;19.958;2022-11-12T11:12:28;100238.20;;;12.04
68510;BMP180;55512;50.102;19.958;2022-11-12T11:15:22;100230.60;;;12.10
68510;BMP180;55512;50.102;19.958;2022-11-12T11:17:48;100233.60;;;12.20
68510;BMP180;55512;50.102;19.958;2022-11-12T11:20:32;100230.40;;;12.20
68510;BMP180;55512;50.102;19.958;2022-11-12T11:23:03;100231.60;;;12.26
68510;BMP180;55512;50.102;19.958;2022-11-12T11:25:32;100229.20;;;12.30
68510;BMP180;55512;50.102;19.958;2022-11-12T11:34:22;100217.20;;;12.40
68510;BMP180;55512;50.102;19.958;2022-11-12T11:37:01;100215.00;;;12.50
68510;BMP180;55512;50.102;19.958;2022-11-12T11:42:24;100215.00;;;12.60
68510;BMP180;55512;50.102;19.958;2022-11-12T11:56:26;100203.80;;;12.90
68510;BMP180;55512;50.102;19.958;2022-11-12T12:00:03;100203.80;;;12.90
68510;BMP180;55512;50.102;19.958;2022-11-12T12:06:12;100196.60;;;13.10
68510;BMP180;55512;50.102;19.958;2022-11-12T12:08:54;100196.40;;;13.16
68510;BMP180;55512;50.102;19.958;2022-11-12T12:11:44;100198.60;;;13.20
68510;BMP180;55512;50.102;19.958;2022-11-12T12:20:39;100197.80;;;13.40
68510;BMP180;55512;50.102;19.958;2022-11-12T12:25:45;100193.20;;;13.50
68510;BMP180;55512;50.102;19.958;2022-11-12T12:31:12;100194.40;;;13.70
68510;BMP180;55512;50.102;19.958;2022-11-12T12:36:39;100197.00;;;13.80
68510;BMP180;55512;50.102;19.958;2022-11-12T12:42:42;100194.00;;;14.00
68510;BMP180;55512;50.102;19.958;2022-11-12T12:45:39;100193.00;;;14.10
68510;BMP180;55512;50.102;19.958;2022-11-12T12:48:14;100197.20;;;14.10
68510;BMP180;55512;50.102;19.958;2022-11-12T12:50:42;100196.60;;;14.20
68510;BMP180;55512;50.102;19.958;2022-11-12T12:55:42;100190.00;;;14.20
68510;BMP180;55512;50.102;19.958;2022-11-12T12:58:39;100190.80;;;14.30
68510;BMP180;55512;50.102;19.958;2022-11-12T13:03:58;100194.00;;;14.30
68510;BMP180;55512;50.102;19.958;2022-11-12T13:32:57;100191.20;;;14.80
68510;BMP180;55512;50.102;19.958;2022-11-12T13:40:42;100189.80;;;15.00
68510;BMP180;55512;50.102;19.958;2022-11-12T13:53:58;100194.60;;;15.28
68510;BMP180;55512;50.102;19.958;2022-11-12T13:58:54;100191.40;;;15.22
68510;BMP180;55512;50.102;19.958;2022-11-12T14:01:23;100189.60;;;15.30
68510;BMP180;55512;50.102;19.958;2022-11-12T14:03:51;100195.20;;;15.30
68510;BMP180;55512;50.102;19.958;2022-11-12T14:06:35;100197.00;;;15.40
68510;BMP180;55512;50.102;19.958;2022-11-12T14:21:10;100191.60;;;17.18
68510;BMP180;55512;50.102;19.958;2022-11-12T14:23:43;100193.40;;;18.04
68510;BMP180;55512;50.102;19.958;2022-11-12T14:26:11;100190.80;;;18.40
68510;BMP180;55512;50.102;19.958;2022-11-12T14:28:37;100193.00;;;18.50
68510;BMP180;55512;50.102;19.958;2022-11-12T14:31:13;100189.40;;;18.60
68510;BMP180;55512;50.102;19.958;2022-11-12T14:33:39;100195.40;;;18.80
68510;BMP180;55512;50.102;19.958;2022-11-12T14:36:11;100197.00;;;18.70
68510;BMP180;55512;50.102;19.958;2022-11-12T14:38:47;100197.60;;;18.40
68510;BMP180;55512;50.102;19.958;2022-11-12T14:41:20;100199.20;;;18.08
68510;BMP180;55512;50.102;19.958;2022-11-12T14:43:56;100195.00;;;17.68
68510;BMP180;55512;50.102;19.958;2022-11-12T14:46:37;100195.60;;;17.22
68510;BMP180;55512;50.102;19.958;2022-11-12T14:49:31;100192.80;;;16.90
68510;BMP180;55512;50.102;19.958;2022-11-12T14:52:01;100191.40;;;16.50
68510;BMP180;55512;50.102;19.958;2022-11-12T14:54:35;100190.60;;;16.20
68510;BMP180;55512;50.102;19.958;2022-11-12T14:57:05;100185.40;;;15.94
68510;BMP180;55512;50.102;19.958;2022-11-12T14:59:32;100183.80;;;15.70
68510;BMP180;55512;50.102;19.958;2022-11-12T15:02:09;100182.00;;;15.50
68510;BMP180;55512;50.102;19.958;2022-11-12T15:04:51;100183.60;;;15.22
68510;BMP180;55512;50.102;19.958;2022-11-12T15:07:29;100178.40;;;15.00
68510;BMP180;55512;50.102;19.958;2022-11-12T15:09:57;100180.40;;;14.80
68510;BMP180;55512;50.102;19.958;2022-11-12T15:12:26;100187.00;;;14.56
68510;BMP180;55512;50.102;19.958;2022-11-12T15:15:22;100189.80;;;14.28
68510;BMP180;55512;50.102;19.958;2022-11-12T15:17:56;100189.60;;;14.00
68510;BMP180;55512;50.102;19.958;2022-11-12T15:20:22;100190.40;;;13.80
68510;BMP180;55512;50.102;19.958;2022-11-12T15:22:52;100190.80;;;13.60
68510;BMP180;55512;50.102;19.958;2022-11-12T15:25:30;100186.40;;;13.40
68510;BMP180;55512;50.102;19.958;2022-11-12T15:28:22;100189.20;;;13.20
68510;BMP180;55512;50.102;19.958;2022-11-12T15:31:16;100192.60;;;13.10
68510;BMP180;55512;50.102;19.958;2022-11-12T15:33:43;100186.80;;;12.90
68510;BMP180;55512;50.102;19.958;2022-11-12T15:36:18;100184.20;;;12.74
68510;BMP180;55512;50.102;19.958;2022-11-12T15:38:53;100187.20;;;12.50
68510;BMP180;55512;50.102;19.958;2022-11-12T15:41:32;100188.60;;;12.32
68510;BMP180;55512;50.102;19.958;2022-11-12T15:43:58;100187.20;;;12.20
68510;BMP180;55512;50.102;19.958;2022-11-12T15:46:24;100189.00;;;12.10
68510;BMP180;55512;50.102;19.958;2022-11-12T15:48:49;100192.20;;;12.00
68510;BMP180;55512;50.102;19.958;2022-11-12T15:51:16;100191.00;;;11.98
68510;BMP180;55512;50.102;19.958;2022-11-12T15:53:41;100195.60;;;11.86
68510;BMP180;55512;50.102;19.958;2022-11-12T15:56:18;100197.20;;;11.80
68510;BMP180;55512;50.102;19.958;2022-11-12T15:58:45;100202.60;;;11.70
68510;BMP180;55512;50.102;19.958;2022-11-12T16:01:11;100203.20;;;11.60
68510;BMP180;55512;50.102;19.958;2022-11-12T16:03:37;100209.00;;;11.54
68510;BMP180;55512;50.102;19.958;2022-11-12T16:06:03;100206.80;;;11.50
68510;BMP180;55512;50.102;19.958;2022-11-12T16:08:28;100207.60;;;11.40
68510;BMP180;55512;50.102;19.958;2022-11-12T16:10:54;100213.20;;;11.40
68510;BMP180;55512;50.102;19.958;2022-11-12T16:13:26;100214.60;;;11.30
68510;BMP180;55512;50.102;19.958;2022-11-12T16:15:53;100224.20;;;11.26
68510;BMP180;55512;50.102;19.958;2022-11-12T16:18:19;100220.60;;;11.20
68510;BMP180;55512;50.102;19.958;2022-11-12T16:20:44;100221.00;;;11.10